Time;durP1;ratioP1;P1;durP2;ratioP2;P2;SDS_P1;SDS_P2;PMS_P1;PMS_P2;Temp;Humidity;BMP_temperature;BMP_pressure;BME280_temperature;BME280_humidity;BME280_pressure;Samples;Min_cycle;Max_cycle;Signal;HPM_P1;HPM_P2
2022/06/12 00:01:57;;;;;;;9.25;4.47;;;;;;;;;;4879813;29;20128;-65
2022/06/12 00:04:23;;;;;;;16.27;5.45;;;;;;;;;;4879337;29;20043;-62
2022/06/12 00:06:48;;;;;;;10.65;4.18;;;;;;;;;;4880989;29;20033;-61
2022/06/12 00:09:15;;;;;;;14.23;4.75;;;;;;;;;;4878545;29;20070;-61
2022/06/12 00:11:41;;;;;;;9.40;4.00;;;;;;;;;;4879847;29;20064;-61
2022/06/12 00:14:07;;;;;;;9.10;4.30;;;;;;;;;;4878754;29;20119;-61
2022/06/12 00:16:34;;;;;;;10.27;4.45;;;;;;;;;;4879488;29;20037;-61
2022/06/12 00:19:01;;;;;;;7.95;4.25;;;;;;;;;;4879439;29;20037;-62
2022/06/12 00:21:31;;;;;;;9.75;4.45;;;;;;;;;;4878131;29;20048;-62
2022/06/12 00:24:00;;;;;;;10.25;4.55;;;;;;;;;;4880920;29;20075;-62
2022/06/12 00:26:29;;;;;;;13.45;4.55;;;;;;;;;;4877875;29;20057;-62
2022/06/12 00:29:07;;;;;;;10.57;4.63;;;;;;;;;;4862559;29;20037;-62
2022/06/12 00:31:35;;;;;;;10.88;4.68;;;;;;;;;;4879077;29;20033;-61
2022/06/12 00:34:01;;;;;;;12.40;5.18;;;;;;;;;;4877293;29;20460;-61
2022/06/12 00:36:27;;;;;;;9.73;4.50;;;;;;;;;;4876866;29;20066;-61
2022/06/12 00:38:52;;;;;;;10.55;4.55;;;;;;;;;;4863244;29;20450;-62
2022/06/12 00:41:18;;;;;;;12.82;4.82;;;;;;;;;;4877416;29;20043;-61
2022/06/12 00:43:43;;;;;;;13.35;4.70;;;;;;;;;;4878956;29;20037;-62
2022/06/12 00:46:46;;;;;;;13.75;4.97;;;;;;;;;;4879401;29;20037;-61
2022/06/12 00:49:34;;;;;;;10.13;4.78;;;;;;;;;;4878396;29;20459;-61
2022/06/12 00:52:09;;;;;;;11.50;4.90;;;;;;;;;;4879297;29;20502;-61
2022/06/12 00:54:35;;;;;;;11.48;5.10;;;;;;;;;;4878688;29;20148;-61
2022/06/12 00:57:03;;;;;;;12.20;5.45;;;;;;;;;;4880444;29;20044;-61
2022/06/12 00:59:42;;;;;;;13.43;5.55;;;;;;;;;;4877607;29;20049;-61
2022/06/12 01:02:11;;;;;;;10.80;5.38;;;;;;;;;;4861925;29;20052;-61
2022/06/12 01:07:26;;;;;;;13.52;5.63;;;;;;;;;;4872769;29;20052;-61
2022/06/12 01:09:54;;;;;;;10.45;6.00;;;;;;;;;;4880062;29;20374;-61
2022/06/12 01:12:24;;;;;;;13.43;5.90;;;;;;;;;;4878272;29;20051;-60
2022/06/12 01:14:54;;;;;;;13.43;6.10;;;;;;;;;;4878969;29;20076;-61
2022/06/12 01:17:22;;;;;;;12.73;5.40;;;;;;;;;;4877414;29;20041;-62
2022/06/12 01:19:53;;;;;;;16.27;5.80;;;;;;;;;;4878968;29;20550;-62
2022/06/12 01:23:06;;;;;;;13.57;5.78;;;;;;;;;;4876160;29;20068;-63
2022/06/12 01:26:18;;;;;;;11.90;5.43;;;;;;;;;;4806248;29;20406;-62
2022/06/12 01:28:46;;;;;;;11.90;5.60;;;;;;;;;;4875732;29;20052;-62
2022/06/12 01:31:39;;;;;;;12.63;6.10;;;;;;;;;;4879840;29;20124;-62
2022/06/12 01:34:49;;;;;;;11.48;5.35;;;;;;;;;;4879377;29;20382;-63
2022/06/12 01:37:48;;;;;;;14.40;5.95;;;;;;;;;;4875503;29;20497;-63
2022/06/12 01:40:16;;;;;;;11.02;5.70;;;;;;;;;;4879130;29;20044;-61
2022/06/12 01:42:47;;;;;;;11.02;5.72;;;;;;;;;;4878575;29;20091;-61
2022/06/12 01:45:35;;;;;;;11.73;5.25;;;;;;;;;;4878758;29;20045;-61
2022/06/12 01:48:07;;;;;;;12.25;5.10;;;;;;;;;;4878400;29;20478;-61
2022/06/12 01:50:44;;;;;;;11.27;5.15;;;;;;;;;;4876354;29;20040;-61
2022/06/12 01:53:47;;;;;;;15.10;5.07;;;;;;;;;;4875689;29;20033;-61
2022/06/12 01:56:19;;;;;;;13.10;5.32;;;;;;;;;;4801975;29;20136;-62
2022/06/12 01:58:59;;;;;;;10.77;5.40;;;;;;;;;;4875417;29;20538;-61
2022/06/12 02:01:46;;;;;;;12.05;5.70;;;;;;;;;;4882394;29;20051;-61
2022/06/12 02:04:19;;;;;;;11.73;5.30;;;;;;;;;;4877738;29;20037;-61
2022/06/12 02:07:04;;;;;;;11.65;5.07;;;;;;;;;;4877393;29;20041;-61
2022/06/12 02:09:39;;;;;;;11.07;5.20;;;;;;;;;;4875823;29;20071;-61
2022/06/12 02:15:11;;;;;;;10.52;4.90;;;;;;;;;;4879097;29;20393;-61
2022/06/12 02:18:10;;;;;;;12.07;5.40;;;;;;;;;;4875282;29;20112;-61
2022/06/12 02:20:43;;;;;;;11.82;5.00;;;;;;;;;;4872071;29;20178;-61
2022/06/12 02:23:14;;;;;;;13.38;5.50;;;;;;;;;;4860455;29;20048;-61
2022/06/12 02:25:42;;;;;;;11.23;5.40;;;;;;;;;;4877291;29;20025;-60
2022/06/12 02:28:20;;;;;;;11.73;5.82;;;;;;;;;;4862059;29;20045;-61
2022/06/12 02:30:50;;;;;;;9.35;5.18;;;;;;;;;;4876375;29;20121;-61
2022/06/12 02:33:22;;;;;;;14.85;5.68;;;;;;;;;;4877457;29;20198;-61
2022/06/12 02:35:59;;;;;;;8.20;5.03;;;;;;;;;;4875923;29;20033;-61
2022/06/12 02:38:47;;;;;;;10.52;5.40;;;;;;;;;;4864842;29;20097;-61
2022/06/12 02:41:21;;;;;;;12.27;5.43;;;;;;;;;;4864727;29;20064;-61
2022/06/12 02:43:48;;;;;;;11.80;5.32;;;;;;;;;;4875052;29;20041;-61
2022/06/12 02:46:16;;;;;;;10.02;5.60;;;;;;;;;;4878238;29;20040;-61
2022/06/12 02:48:43;;;;;;;12.82;5.60;;;;;;;;;;4860898;29;20548;-61
2022/06/12 02:51:16;;;;;;;12.88;6.18;;;;;;;;;;4877106;29;20085;-61
2022/06/12 02:53:47;;;;;;;11.20;6.15;;;;;;;;;;4877218;29;20402;-61
2022/06/12 02:56:37;;;;;;;13.00;6.32;;;;;;;;;;4876672;29;20039;-61
2022/06/12 02:59:42;;;;;;;13.48;5.85;;;;;;;;;;4877492;29;20426;-61
2022/06/12 03:02:21;;;;;;;12.68;5.78;;;;;;;;;;4858758;29;20049;-62
2022/06/12 03:04:51;;;;;;;9.60;5.90;;;;;;;;;;4877362;29;20468;-61
2022/06/12 03:07:17;;;;;;;10.95;5.22;;;;;;;;;;4875665;29;20040;-61
2022/06/12 03:09:42;;;;;;;10.88;6.10;;;;;;;;;;4877301;29;20041;-62
2022/06/12 03:12:08;;;;;;;14.63;6.38;;;;;;;;;;4877142;29;20044;-61
2022/06/12 03:14:34;;;;;;;10.02;5.88;;;;;;;;;;4877253;29;20037;-61
2022/06/12 03:16:59;;;;;;;14.18;5.65;;;;;;;;;;4876893;29;20025;-61
2022/06/12 03:19:33;;;;;;;11.68;5.93;;;;;;;;;;4876763;29;20121;-62
2022/06/12 03:22:26;;;;;;;13.18;6.20;;;;;;;;;;4877789;29;20037;-61
2022/06/12 03:25:25;;;;;;;13.07;5.55;;;;;;;;;;4876746;29;20041;-61
2022/06/12 03:28:04;;;;;;;11.65;5.90;;;;;;;;;;4875809;29;20052;-61
2022/06/12 03:30:30;;;;;;;11.93;5.80;;;;;;;;;;4876978;29;20340;-61
2022/06/12 03:33:01;;;;;;;13.50;6.30;;;;;;;;;;4875324;29;20505;-62
2022/06/12 03:35:27;;;;;;;11.10;5.65;;;;;;;;;;4876505;29;21259;-61
2022/06/12 03:38:09;;;;;;;11.00;5.72;;;;;;;;;;4876384;29;20487;-62
2022/06/12 03:41:02;;;;;;;11.70;6.25;;;;;;;;;;4875551;29;20458;-62
2022/06/12 03:43:34;;;;;;;12.15;5.63;;;;;;;;;;4877318;29;20037;-62
2022/06/12 03:46:05;;;;;;;13.15;5.40;;;;;;;;;;4876063;29;20072;-62
2022/06/12 03:48:47;;;;;;;9.65;5.80;;;;;;;;;;4876810;29;20526;-62
2022/06/12 03:51:24;;;;;;;12.02;6.38;;;;;;;;;;4877834;29;20047;-61
2022/06/12 03:53:53;;;;;;;12.30;7.13;;;;;;;;;;4876139;29;20468;-61
2022/06/12 03:59:39;;;;;;;12.65;6.85;;;;;;;;;;4873989;29;20118;-61
2022/06/12 04:02:08;;;;;;;11.15;6.18;;;;;;;;;;4876251;29;20033;-62
2022/06/12 04:04:36;;;;;;;14.23;6.32;;;;;;;;;;4861314;29;20124;-61
2022/06/12 04:07:06;;;;;;;13.55;6.25;;;;;;;;;;4859486;29;20536;-61
2022/06/12 04:09:37;;;;;;;13.07;6.23;;;;;;;;;;4858513;29;20037;-62
2022/06/12 04:12:07;;;;;;;11.57;6.18;;;;;;;;;;4863038;29;20061;-63
2022/06/12 04:14:38;;;;;;;10.60;6.18;;;;;;;;;;4874621;29;20036;-61
2022/06/12 04:17:05;;;;;;;11.45;6.22;;;;;;;;;;4855715;29;20037;-62
2022/06/12 04:19:32;;;;;;;12.65;6.30;;;;;;;;;;4879815;29;20041;-62
2022/06/12 04:22:04;;;;;;;13.95;5.97;;;;;;;;;;4878573;29;20040;-62
2022/06/12 04:24:42;;;;;;;12.60;5.97;;;;;;;;;;4878737;29;20036;-62
2022/06/12 04:27:22;;;;;;;11.52;6.13;;;;;;;;;;4880381;29;20049;-62
2022/06/12 04:29:54;;;;;;;10.80;6.63;;;;;;;;;;4879518;29;20537;-62
2022/06/12 04:32:40;;;;;;;12.98;5.78;;;;;;;;;;4878063;29;20033;-61
2022/06/12 04:35:06;;;;;;;11.82;5.80;;;;;;;;;;4880303;29;20064;-61
2022/06/12 04:37:32;;;;;;;7.95;5.07;;;;;;;;;;4879622;29;20506;-62
2022/06/12 04:40:03;;;;;;;9.68;5.20;;;;;;;;;;4878862;29;20041;-62
2022/06/12 04:42:31;;;;;;;10.27;5.13;;;;;;;;;;4880645;29;20037;-61
2022/06/12 04:45:05;;;;;;;11.23;5.30;;;;;;;;;;4877281;29;20041;-62
2022/06/12 04:47:31;;;;;;;12.68;5.35;;;;;;;;;;4877529;29;20033;-63
2022/06/12 04:49:57;;;;;;;10.48;4.97;;;;;;;;;;4880393;29;20047;-61
2022/06/12 04:52:26;;;;;;;11.10;5.10;;;;;;;;;;4878690;29;20145;-62
2022/06/12 04:54:51;;;;;;;11.57;5.30;;;;;;;;;;4879693;29;20081;-61
2022/06/12 04:57:18;;;;;;;12.48;5.30;;;;;;;;;;4879973;29;20037;-61
2022/06/12 04:59:45;;;;;;;11.95;5.40;;;;;;;;;;4877331;29;20039;-62
2022/06/12 05:02:11;;;;;;;13.23;5.78;;;;;;;;;;4878421;29;20407;-61
2022/06/12 05:04:37;;;;;;;13.32;5.75;;;;;;;;;;4878568;29;20085;-61
2022/06/12 05:07:03;;;;;;;11.13;4.82;;;;;;;;;;4880431;29;20550;-61
2022/06/12 05:09:33;;;;;;;15.88;5.00;;;;;;;;;;4878921;29;20069;-62
2022/06/12 05:11:59;;;;;;;11.18;5.10;;;;;;;;;;4879278;29;20128;-61
2022/06/12 05:14:25;;;;;;;11.88;4.93;;;;;;;;;;4878095;29;20120;-61
2022/06/12 05:16:54;;;;;;;11.18;5.00;;;;;;;;;;4877844;29;20841;-61
2022/06/12 05:19:23;;;;;;;11.07;4.63;;;;;;;;;;4877122;29;20045;-61
2022/06/12 05:21:49;;;;;;;9.40;4.85;;;;;;;;;;4879308;29;20057;-61
2022/06/12 05:24:15;;;;;;;11.90;4.85;;;;;;;;;;4879143;29;20044;-62
2022/06/12 05:26:43;;;;;;;8.25;3.97;;;;;;;;;;4879022;29;20053;-61
2022/06/12 05:29:17;;;;;;;8.90;3.80;;;;;;;;;;4877996;29;20045;-61
2022/06/12 05:31:44;;;;;;;10.38;3.30;;;;;;;;;;4876252;29;20463;-61
2022/06/12 05:34:09;;;;;;;7.38;3.20;;;;;;;;;;4878476;29;20040;-61
2022/06/12 05:36:35;;;;;;;7.13;3.60;;;;;;;;;;4876355;29;20096;-61
2022/06/12 05:39:01;;;;;;;9.10;3.67;;;;;;;;;;4879079;29;20463;-61
2022/06/12 05:41:26;;;;;;;8.88;3.40;;;;;;;;;;4879767;29;20029;-61
2022/06/12 05:43:52;;;;;;;9.68;3.28;;;;;;;;;;4877877;29;20053;-61
2022/06/12 05:46:17;;;;;;;11.43;3.63;;;;;;;;;;4866078;29;20037;-61
2022/06/12 05:48:44;;;;;;;4.90;2.60;;;;;;;;;;4874593;29;20112;-61
2022/06/12 05:51:13;;;;;;;8.10;2.40;;;;;;;;;;4878702;29;20033;-61
2022/06/12 05:53:38;;;;;;;6.20;2.50;;;;;;;;;;4876799;29;20508;-61
2022/06/12 05:56:07;;;;;;;7.18;2.40;;;;;;;;;;4878833;29;20037;-61
2022/06/12 05:58:34;;;;;;;7.53;2.10;;;;;;;;;;4878829;29;20043;-61
2022/06/12 06:01:00;;;;;;;5.45;2.00;;;;;;;;;;4878306;29;20093;-61
2022/06/12 06:03:25;;;;;;;7.57;1.77;;;;;;;;;;4878193;29;20431;-61
2022/06/12 06:05:51;;;;;;;6.35;1.73;;;;;;;;;;4871158;29;20463;-61
2022/06/12 06:08:17;;;;;;;4.43;1.55;;;;;;;;;;4877539;29;20033;-61
2022/06/12 06:10:43;;;;;;;5.22;1.60;;;;;;;;;;4877599;29;20119;-61
2022/06/12 06:13:10;;;;;;;7.68;1.70;;;;;;;;;;4878297;29;20029;-61
2022/06/12 06:15:37;;;;;;;6.93;1.40;;;;;;;;;;4853808;29;20073;-61
2022/06/12 06:18:03;;;;;;;7.28;2.00;;;;;;;;;;4867341;29;20112;-61
2022/06/12 06:20:31;;;;;;;6.13;1.88;;;;;;;;;;4875333;29;20041;-60
2022/06/12 06:22:57;;;;;;;5.82;1.70;;;;;;;;;;4877487;29;20112;-62
2022/06/12 06:25:24;;;;;;;6.00;1.60;;;;;;;;;;4877303;29;20135;-61
2022/06/12 06:27:50;;;;;;;6.03;1.70;;;;;;;;;;4859250;29;20049;-60
2022/06/12 06:30:15;;;;;;;6.85;1.85;;;;;;;;;;4878139;29;20052;-62
2022/06/12 06:32:41;;;;;;;5.63;1.83;;;;;;;;;;4878069;29;20112;-61
2022/06/12 06:35:08;;;;;;;6.68;1.63;;;;;;;;;;4878088;29;20451;-61
2022/06/12 06:37:34;;;;;;;5.82;1.77;;;;;;;;;;4876796;29;20071;-61
2022/06/12 06:39:59;;;;;;;9.23;2.08;;;;;;;;;;4876155;29;20061;-61
2022/06/12 06:42:25;;;;;;;6.00;2.10;;;;;;;;;;4878747;29;20375;-62
2022/06/12 06:47:36;;;;;;;8.18;2.15;;;;;;;;;;4872261;29;20104;-61
2022/06/12 06:50:05;;;;;;;7.35;2.08;;;;;;;;;;4860479;29;20105;-61
2022/06/12 06:52:31;;;;;;;9.13;2.20;;;;;;;;;;4871421;29;20048;-69
2022/06/12 06:54:57;;;;;;;9.10;2.42;;;;;;;;;;4873947;29;20120;-69
2022/06/12 06:57:22;;;;;;;10.15;2.30;;;;;;;;;;4876735;29;20037;-70
2022/06/12 06:59:47;;;;;;;10.25;2.22;;;;;;;;;;4875132;29;20040;-69
2022/06/12 07:02:13;;;;;;;8.98;2.20;;;;;;;;;;4876360;29;20049;-71
2022/06/12 07:04:39;;;;;;;7.50;2.30;;;;;;;;;;4877600;29;20032;-67
2022/06/12 07:07:05;;;;;;;10.75;2.50;;;;;;;;;;4876734;29;20136;-69
2022/06/12 07:09:31;;;;;;;8.60;2.38;;;;;;;;;;4877698;29;20140;-68
2022/06/12 07:11:56;;;;;;;8.20;2.13;;;;;;;;;;4875636;29;20116;-69
2022/06/12 07:14:21;;;;;;;6.93;2.30;;;;;;;;;;4875642;29;20097;-68
2022/06/12 07:16:47;;;;;;;11.27;2.40;;;;;;;;;;4876406;29;20036;-69
2022/06/12 07:19:12;;;;;;;8.00;2.38;;;;;;;;;;4876619;29;20539;-69
2022/06/12 07:21:38;;;;;;;9.80;2.63;;;;;;;;;;4877792;29;20516;-68
2022/06/12 07:24:07;;;;;;;7.00;2.47;;;;;;;;;;4876301;29;20037;-69
2022/06/12 07:26:36;;;;;;;10.57;2.95;;;;;;;;;;4877970;29;20064;-69
2022/06/12 07:29:03;;;;;;;12.88;2.85;;;;;;;;;;4876109;29;20032;-69
2022/06/12 07:31:30;;;;;;;10.38;3.22;;;;;;;;;;4878167;29;20116;-69
2022/06/12 07:33:55;;;;;;;13.55;3.00;;;;;;;;;;4871045;29;20063;-69
2022/06/12 07:36:21;;;;;;;8.73;2.70;;;;;;;;;;4857616;29;20454;-70
2022/06/12 07:38:49;;;;;;;9.27;2.80;;;;;;;;;;4876058;29;20033;-69
2022/06/12 07:41:17;;;;;;;8.63;2.60;;;;;;;;;;4877317;29;20041;-71
2022/06/12 07:43:44;;;;;;;6.90;2.60;;;;;;;;;;4876087;29;20060;-68
2022/06/12 07:46:12;;;;;;;8.30;2.63;;;;;;;;;;4876383;29;20041;-69
2022/06/12 07:48:39;;;;;;;7.47;2.80;;;;;;;;;;4877106;29;20530;-69
2022/06/12 07:51:10;;;;;;;12.57;2.95;;;;;;;;;;4877191;29;20045;-70
2022/06/12 07:53:37;;;;;;;8.48;2.60;;;;;;;;;;4878450;29;20041;-70
2022/06/12 07:56:04;;;;;;;6.82;2.10;;;;;;;;;;4880062;29;20021;-70
2022/06/12 07:58:30;;;;;;;11.00;2.75;;;;;;;;;;4879357;29;20037;-69
2022/06/12 08:00:59;;;;;;;9.98;2.35;;;;;;;;;;4880366;29;20121;-70
2022/06/12 08:03:26;;;;;;;5.07;2.30;;;;;;;;;;4880133;29;20234;-71
2022/06/12 08:05:52;;;;;;;7.22;2.10;;;;;;;;;;4880591;29;20033;-70
2022/06/12 08:08:18;;;;;;;7.40;2.33;;;;;;;;;;4880026;29;20119;-70
2022/06/12 08:10:44;;;;;;;7.43;2.20;;;;;;;;;;4871711;29;20025;-68
2022/06/12 08:13:11;;;;;;;9.73;2.63;;;;;;;;;;4876732;29;20043;-71
2022/06/12 08:15:39;;;;;;;9.88;2.55;;;;;;;;;;4861714;29;20029;-70
2022/06/12 08:18:05;;;;;;;9.38;2.42;;;;;;;;;;4879205;29;20045;-71
2022/06/12 08:20:33;;;;;;;11.18;2.83;;;;;;;;;;4880137;29;20047;-71
2022/06/12 08:23:26;;;;;;;7.80;2.38;;;;;;;;;;4874489;29;20033;-70
2022/06/12 08:25:53;;;;;;;10.07;2.35;;;;;;;;;;4877167;29;20056;-69
2022/06/12 08:28:19;;;;;;;8.65;2.20;;;;;;;;;;4880223;29;20040;-70
2022/06/12 08:30:44;;;;;;;8.77;2.63;;;;;;;;;;4879846;29;20044;-70
2022/06/12 08:33:10;;;;;;;8.20;2.47;;;;;;;;;;4878857;29;20029;-62
2022/06/12 08:35:36;;;;;;;6.93;2.33;;;;;;;;;;4879804;29;20363;-60
2022/06/12 08:38:02;;;;;;;10.50;3.30;;;;;;;;;;4876412;29;20063;-65
2022/06/12 08:40:51;;;;;;;7.75;2.30;;;;;;;;;;4879454;29;20393;-61
2022/06/12 08:43:44;;;;;;;8.18;2.70;;;;;;;;;;4880016;29;20033;-60
2022/06/12 08:46:20;;;;;;;7.10;2.33;;;;;;;;;;4878420;29;20044;-60
2022/06/12 08:48:54;;;;;;;6.68;2.30;;;;;;;;;;4862905;29;20049;-62
2022/06/12 08:51:26;;;;;;;8.40;2.50;;;;;;;;;;4880650;29;20831;-60
2022/06/12 08:53:59;;;;;;;5.13;2.00;;;;;;;;;;4878150;29;20442;-60
2022/06/12 08:56:30;;;;;;;5.65;1.73;;;;;;;;;;4880732;29;20043;-60
2022/06/12 08:59:08;;;;;;;4.45;1.63;;;;;;;;;;4878977;29;20069;-61
2022/06/12 09:01:41;;;;;;;6.15;1.80;;;;;;;;;;4880521;29;20041;-61
2022/06/12 09:04:09;;;;;;;3.40;1.40;;;;;;;;;;4877422;29;20603;-60
2022/06/12 09:07:05;;;;;;;5.45;1.50;;;;;;;;;;4879337;29;20060;-61
2022/06/12 09:10:01;;;;;;;5.47;1.70;;;;;;;;;;4877056;29;20037;-61
2022/06/12 09:12:42;;;;;;;4.15;1.45;;;;;;;;;;4877377;29;20049;-62
2022/06/12 09:15:25;;;;;;;3.90;1.45;;;;;;;;;;4861049;29;20033;-61
2022/06/12 09:18:10;;;;;;;5.32;1.33;;;;;;;;;;4862337;29;20064;-61
2022/06/12 09:21:03;;;;;;;4.43;1.33;;;;;;;;;;4863432;29;20091;-61
2022/06/12 09:23:37;;;;;;;2.80;1.25;;;;;;;;;;4878485;29;20386;-61
2022/06/12 09:26:29;;;;;;;3.83;1.63;;;;;;;;;;4877745;29;20121;-60
2022/06/12 09:29:07;;;;;;;4.32;1.23;;;;;;;;;;4879268;29;20483;-61
2022/06/12 09:32:05;;;;;;;4.03;1.35;;;;;;;;;;4880107;29;20041;-60
2022/06/12 09:34:38;;;;;;;5.30;1.60;;;;;;;;;;4862259;29;20039;-60
2022/06/12 09:40:39;;;;;;;5.20;1.40;;;;;;;;;;4876581;29;20044;-60
2022/06/12 09:43:24;;;;;;;4.55;1.70;;;;;;;;;;4878051;29;20066;-61
2022/06/12 09:46:07;;;;;;;5.53;1.60;;;;;;;;;;4879007;29;20108;-62
2022/06/12 09:48:32;;;;;;;5.55;1.55;;;;;;;;;;4879126;29;20033;-60
2022/06/12 09:51:14;;;;;;;4.38;1.70;;;;;;;;;;4878447;29;20067;-61
2022/06/12 09:53:52;;;;;;;5.75;2.10;;;;;;;;;;4878196;29;20037;-60
2022/06/12 09:56:30;;;;;;;6.35;1.80;;;;;;;;;;4879335;29;20033;-60
2022/06/12 09:59:21;;;;;;;9.02;1.92;;;;;;;;;;4877544;29;20478;-60
2022/06/12 10:01:54;;;;;;;5.50;1.75;;;;;;;;;;4860527;29;20037;-60
2022/06/12 10:04:22;;;;;;;6.93;2.28;;;;;;;;;;4873348;29;20053;-60
2022/06/12 10:06:58;;;;;;;4.88;1.80;;;;;;;;;;4877774;29;20066;-60
2022/06/12 10:09:37;;;;;;;6.85;1.80;;;;;;;;;;4876976;29;20033;-60
2022/06/12 10:12:12;;;;;;;7.72;2.20;;;;;;;;;;4876042;29;20116;-61
2022/06/12 10:14:51;;;;;;;6.20;2.00;;;;;;;;;;4877950;29;20037;-60
2022/06/12 10:17:30;;;;;;;6.47;2.40;;;;;;;;;;4877994;29;20065;-60
2022/06/12 10:20:17;;;;;;;8.95;1.83;;;;;;;;;;4878071;29;20041;-61
2022/06/12 10:22:50;;;;;;;6.85;1.92;;;;;;;;;;4878905;29;20036;-60
2022/06/12 10:25:28;;;;;;;9.63;2.30;;;;;;;;;;4878405;29;20041;-60
2022/06/12 10:28:04;;;;;;;7.60;2.60;;;;;;;;;;4878119;29;20090;-61
2022/06/12 10:30:57;;;;;;;8.23;2.28;;;;;;;;;;4877596;29;20088;-61
2022/06/12 10:33:47;;;;;;;7.05;2.47;;;;;;;;;;4869902;29;20045;-61
2022/06/12 10:36:20;;;;;;;6.37;2.30;;;;;;;;;;4867097;29;20057;-60
2022/06/12 10:38:45;;;;;;;7.18;2.20;;;;;;;;;;4875950;29;20193;-62
2022/06/12 10:41:24;;;;;;;6.60;2.00;;;;;;;;;;4877621;29;20772;-60
2022/06/12 10:43:53;;;;;;;7.38;2.13;;;;;;;;;;4877740;29;20032;-62
2022/06/12 10:46:23;;;;;;;5.97;2.10;;;;;;;;;;4877209;29;20040;-60
2022/06/12 10:49:02;;;;;;;9.15;2.10;;;;;;;;;;4878643;29;20033;-61
2022/06/12 10:51:30;;;;;;;6.55;1.92;;;;;;;;;;4878569;29;20040;-60
2022/06/12 10:53:59;;;;;;;6.82;2.35;;;;;;;;;;4860061;29;20060;-60
2022/06/12 10:56:42;;;;;;;7.88;2.25;;;;;;;;;;4861747;29;20044;-60
2022/06/12 10:59:22;;;;;;;7.80;2.35;;;;;;;;;;4877036;29;20041;-60
2022/06/12 11:01:50;;;;;;;10.15;2.28;;;;;;;;;;4876581;29;20064;-60
2022/06/12 11:04:24;;;;;;;8.90;2.30;;;;;;;;;;4877576;29;20121;-60
2022/06/12 11:07:10;;;;;;;7.72;2.30;;;;;;;;;;4876041;29;20033;-60
2022/06/12 11:09:45;;;;;;;7.28;2.20;;;;;;;;;;4842246;29;20140;-60
2022/06/12 11:12:37;;;;;;;6.78;2.30;;;;;;;;;;4876605;29;20123;-61
2022/06/12 11:15:18;;;;;;;7.38;2.00;;;;;;;;;;4875292;29;20047;-60
2022/06/12 11:17:54;;;;;;;8.73;1.90;;;;;;;;;;4878703;29;20471;-60
2022/06/12 11:20:39;;;;;;;5.82;1.80;;;;;;;;;;4876624;29;20036;-60
2022/06/12 11:23:19;;;;;;;7.18;2.35;;;;;;;;;;4858871;29;20072;-60
2022/06/12 11:26:12;;;;;;;5.50;2.00;;;;;;;;;;4859365;29;20038;-60
2022/06/12 11:29:05;;;;;;;6.97;2.00;;;;;;;;;;4859574;29;20065;-60
2022/06/12 11:31:54;;;;;;;8.70;2.53;;;;;;;;;;4859567;29;20038;-61
2022/06/12 11:34:23;;;;;;;5.53;1.83;;;;;;;;;;4859329;29;20044;-61
2022/06/12 11:37:04;;;;;;;7.07;2.15;;;;;;;;;;4868619;29;20028;-61
2022/06/12 11:39:38;;;;;;;7.05;1.98;;;;;;;;;;4878170;29;20534;-61
2022/06/12 11:42:10;;;;;;;8.25;2.35;;;;;;;;;;4877219;29;20037;-59
2022/06/12 11:45:18;;;;;;;6.85;2.05;;;;;;;;;;4861207;29;20392;-62
2022/06/12 11:48:05;;;;;;;6.93;2.40;;;;;;;;;;4876281;29;20033;-60
2022/06/12 11:50:45;;;;;;;5.80;1.90;;;;;;;;;;4876082;29;20111;-60
2022/06/12 11:53:21;;;;;;;9.40;2.70;;;;;;;;;;4877137;29;20418;-59
2022/06/12 11:55:57;;;;;;;7.18;2.10;;;;;;;;;;4877108;29;20066;-59
2022/06/12 11:59:07;;;;;;;7.63;2.50;;;;;;;;;;4878240;29;20029;-60
2022/06/12 12:01:50;;;;;;;6.88;2.30;;;;;;;;;;4851400;29;20518;-61
2022/06/12 12:04:47;;;;;;;9.27;2.22;;;;;;;;;;4858672;29;20041;-60
2022/06/12 12:07:19;;;;;;;6.78;2.05;;;;;;;;;;4853802;29;20289;-60
2022/06/12 12:09:58;;;;;;;8.52;2.63;;;;;;;;;;4874068;29;20037;-74
2022/06/12 12:12:30;;;;;;;7.90;2.47;;;;;;;;;;4876098;29;20522;-71
2022/06/12 12:14:58;;;;;;;8.25;2.25;;;;;;;;;;4874305;29;20123;-71
2022/06/12 12:17:38;;;;;;;8.45;2.60;;;;;;;;;;4875686;29;20041;-70
2022/06/12 12:20:11;;;;;;;5.85;2.22;;;;;;;;;;4875621;29;20036;-70
2022/06/12 12:22:47;;;;;;;6.75;2.90;;;;;;;;;;4876595;29;20072;-71
2022/06/12 12:25:17;;;;;;;7.65;2.35;;;;;;;;;;4874367;29;20037;-71
2022/06/12 12:27:46;;;;;;;8.45;2.03;;;;;;;;;;4872842;29;20125;-70
2022/06/12 12:30:23;;;;;;;5.70;2.50;;;;;;;;;;4872381;29;20096;-70
2022/06/12 12:32:52;;;;;;;8.38;2.50;;;;;;;;;;4876637;29;20291;-70
2022/06/12 12:43:32;;;;;;;6.03;2.38;;;;;;;;;;4879561;29;20091;-71
2022/06/12 12:46:08;;;;;;;7.97;2.67;;;;;;;;;;4877724;29;20057;-67
2022/06/12 12:48:41;;;;;;;8.23;2.53;;;;;;;;;;4864876;29;20065;-70
2022/06/12 12:51:07;;;;;;;8.15;2.40;;;;;;;;;;4874017;29;20363;-71
2022/06/12 12:53:35;;;;;;;6.35;2.40;;;;;;;;;;4880369;29;20069;-70
2022/06/12 12:56:11;;;;;;;8.48;2.72;;;;;;;;;;4875959;29;20115;-62
2022/06/12 12:58:56;;;;;;;9.50;2.67;;;;;;;;;;4879852;29;20040;-60
2022/06/12 13:01:28;;;;;;;9.20;2.78;;;;;;;;;;4875986;29;20041;-62
2022/06/12 13:03:59;;;;;;;8.10;2.40;;;;;;;;;;4880274;29;20112;-61
2022/06/12 13:07:02;;;;;;;8.40;2.40;;;;;;;;;;4868117;29;20098;-60
2022/06/12 13:09:41;;;;;;;7.85;2.50;;;;;;;;;;4862506;29;20141;-61
2022/06/12 13:12:37;;;;;;;9.57;2.67;;;;;;;;;;4879148;29;20070;-61
2022/06/12 13:15:27;;;;;;;6.15;2.50;;;;;;;;;;4878683;29;20089;-64
2022/06/12 13:18:20;;;;;;;9.35;2.22;;;;;;;;;;4878166;29;21152;-62
2022/06/12 13:21:12;;;;;;;6.15;2.10;;;;;;;;;;4870111;29;20040;-60
2022/06/12 13:23:43;;;;;;;7.15;2.38;;;;;;;;;;4868764;29;20037;-60
2022/06/12 13:26:14;;;;;;;6.80;2.35;;;;;;;;;;4860739;29;20041;-61
2022/06/12 13:28:41;;;;;;;7.90;2.17;;;;;;;;;;4862154;29;20112;-61
2022/06/12 13:31:17;;;;;;;8.90;2.40;;;;;;;;;;4863561;29;20438;-60
2022/06/12 13:33:51;;;;;;;6.68;2.28;;;;;;;;;;4875268;29;20359;-61
2022/06/12 13:36:16;;;;;;;7.32;2.58;;;;;;;;;;4879016;29;20100;-61
2022/06/12 13:38:53;;;;;;;5.60;2.05;;;;;;;;;;4872246;29;20034;-61
2022/06/12 13:41:33;;;;;;;6.38;2.58;;;;;;;;;;4872952;29;20041;-61
2022/06/12 13:43:59;;;;;;;8.50;2.22;;;;;;;;;;4879730;29;20116;-61
2022/06/12 13:46:32;;;;;;;6.82;2.30;;;;;;;;;;4876934;29;20583;-61
2022/06/12 13:49:00;;;;;;;5.35;2.10;;;;;;;;;;4878876;29;20379;-61
2022/06/12 13:51:42;;;;;;;8.32;1.95;;;;;;;;;;4874499;29;20067;-60
2022/06/12 13:54:19;;;;;;;4.65;1.90;;;;;;;;;;4878710;29;20060;-60
2022/06/12 13:56:49;;;;;;;6.30;1.90;;;;;;;;;;4877976;29;20025;-61
2022/06/12 13:59:17;;;;;;;4.82;1.80;;;;;;;;;;4876488;29;20028;-61
2022/06/12 14:01:43;;;;;;;6.45;2.28;;;;;;;;;;4878126;29;20458;-62
2022/06/12 14:04:28;;;;;;;6.38;2.78;;;;;;;;;;4877862;29;20064;-60
2022/06/12 14:06:57;;;;;;;8.57;2.70;;;;;;;;;;4877246;29;20410;-60
2022/06/12 14:09:26;;;;;;;8.30;3.15;;;;;;;;;;4877970;29;20032;-60
2022/06/12 14:11:53;;;;;;;7.70;2.35;;;;;;;;;;4877678;29;20055;-60
2022/06/12 14:14:34;;;;;;;9.15;3.30;;;;;;;;;;4878432;29;20072;-60
2022/06/12 14:16:59;;;;;;;;;;;;;;;;;;4876781;29;20039;-60
2022/06/12 14:19:27;;;;;;;6.78;3.30;;;;;;;;;;4877432;29;20004;-61
2022/06/12 14:22:07;;;;;;;6.65;2.03;;;;;;;;;;4862464;29;20504;-61
2022/06/12 14:24:34;;;;;;;8.18;2.47;;;;;;;;;;4877021;29;20032;-61
2022/06/12 14:26:59;;;;;;;5.85;2.45;;;;;;;;;;4878276;29;20055;-61
2022/06/12 14:29:37;;;;;;;4.43;2.05;;;;;;;;;;4878050;29;20029;-60
2022/06/12 14:32:11;;;;;;;5.68;2.30;;;;;;;;;;4854633;29;20041;-61
2022/06/12 14:34:39;;;;;;;7.20;2.30;;;;;;;;;;4882283;29;20432;-61
2022/06/12 14:37:05;;;;;;;9.57;2.45;;;;;;;;;;4875569;29;20120;-62
2022/06/12 14:39:38;;;;;;;7.00;2.70;;;;;;;;;;4876976;29;20523;-62
2022/06/12 14:42:10;;;;;;;5.68;2.20;;;;;;;;;;4862561;29;20039;-63
2022/06/12 14:44:36;;;;;;;5.35;2.08;;;;;;;;;;4878067;29;20112;-60
2022/06/12 14:47:13;;;;;;;5.53;2.20;;;;;;;;;;4861849;29;20033;-61
2022/06/12 14:49:39;;;;;;;4.65;1.90;;;;;;;;;;4877273;29;20037;-61
2022/06/12 14:52:05;;;;;;;5.13;2.00;;;;;;;;;;4878368;29;20108;-63
2022/06/12 14:54:30;;;;;;;8.13;2.40;;;;;;;;;;4876023;29;20069;-62
2022/06/12 14:56:55;;;;;;;7.32;2.05;;;;;;;;;;4843300;29;20389;-60
2022/06/12 14:59:23;;;;;;;8.43;2.40;;;;;;;;;;4862274;29;20475;-62
2022/06/12 15:01:49;;;;;;;6.45;2.05;;;;;;;;;;4877630;29;20064;-62
2022/06/12 15:04:15;;;;;;;7.38;2.10;;;;;;;;;;4856829;29;20064;-61
2022/06/12 15:06:41;;;;;;;9.45;2.50;;;;;;;;;;4870255;29;20497;-61
2022/06/12 15:09:07;;;;;;;5.60;1.80;;;;;;;;;;4877377;29;20037;-64
2022/06/12 15:11:34;;;;;;;6.65;2.20;;;;;;;;;;4850282;29;20041;-62
2022/06/12 15:13:59;;;;;;;8.27;2.25;;;;;;;;;;4876008;29;20037;-62
2022/06/12 15:16:28;;;;;;;6.03;2.35;;;;;;;;;;4822772;29;20116;-62
2022/06/12 15:18:54;;;;;;;5.72;2.20;;;;;;;;;;4876765;29;20045;-61
2022/06/12 15:21:23;;;;;;;5.78;2.20;;;;;;;;;;4876749;29;20478;-61
2022/06/12 15:23:49;;;;;;;7.82;2.58;;;;;;;;;;4876835;29;20051;-61
2022/06/12 15:31:46;;;;;;;6.53;2.35;;;;;;;;;;4867289;29;20039;-61
2022/06/12 15:34:12;;;;;;;6.93;2.40;;;;;;;;;;4848716;29;20029;-63
2022/06/12 15:36:38;;;;;;;6.28;2.55;;;;;;;;;;4872843;29;20041;-61
2022/06/12 15:39:04;;;;;;;9.20;2.88;;;;;;;;;;4877271;29;20036;-60
2022/06/12 15:41:29;;;;;;;7.07;3.58;;;;;;;;;;4874884;29;20044;-63
2022/06/12 15:43:55;;;;;;;7.00;2.63;;;;;;;;;;4872786;29;20120;-60